createdAt,value
2023-05-10T00:01:34.953Z,2.92
2023-05-10T00:04:40.261Z,3.10
2023-05-10T00:07:50.835Z,2.70
2023-05-10T00:10:56.194Z,3.30
2023-05-10T00:14:01.243Z,3.65
2023-05-10T00:17:07.242Z,3.20
2023-05-10T00:20:13.559Z,3.33
2023-05-10T00:23:21.963Z,3.00
2023-05-10T00:26:26.940Z,2.97
2023-05-10T00:29:34.994Z,3.67
2023-05-10T00:32:41.141Z,3.95
2023-05-10T00:35:46.456Z,3.20
2023-05-10T00:38:54.620Z,3.30
2023-05-10T00:42:00.870Z,3.58
2023-05-10T00:45:07.372Z,4.28
2023-05-10T00:48:12.731Z,3.45
2023-05-10T00:51:20.492Z,3.42
2023-05-10T00:54:30.772Z,3.65
2023-05-10T00:57:37.536Z,3.20
2023-05-10T01:00:46.673Z,3.47
2023-05-10T01:03:52.338Z,3.67
2023-05-10T01:06:58.404Z,3.00
2023-05-10T01:10:06.149Z,4.65
2023-05-10T01:13:11.913Z,3.53
2023-05-10T01:16:17.517Z,3.17
2023-05-10T01:19:24.081Z,3.55
2023-05-10T01:22:46.978Z,3.33
2023-05-10T01:26:16.341Z,3.50
2023-05-10T01:29:36.031Z,3.22
2023-05-10T01:32:47.287Z,3.80
2023-05-10T01:35:55.883Z,3.10
2023-05-10T01:39:03.934Z,3.35
2023-05-10T01:42:11.491Z,3.08
2023-05-10T01:45:22.650Z,3.33
2023-05-10T01:48:32.638Z,3.33
2023-05-10T01:51:43.060Z,3.22
2023-05-10T01:54:51.711Z,3.50
2023-05-10T01:58:01.907Z,3.47
2023-05-10T02:01:12.908Z,3.30
2023-05-10T02:04:21.914Z,3.17
2023-05-10T02:07:27.789Z,3.28
2023-05-10T02:10:35.221Z,3.53
2023-05-10T02:13:41.298Z,3.08
2023-05-10T02:16:47.164Z,3.72
2023-05-10T02:19:55.553Z,3.42
2023-05-10T02:23:02.127Z,3.63
2023-05-10T02:26:08.007Z,3.22
2023-05-10T02:29:13.856Z,3.42
2023-05-10T02:32:19.399Z,3.20
2023-05-10T02:35:28.060Z,3.72
2023-05-10T02:38:34.133Z,3.78
2023-05-10T02:41:40.282Z,4.00
2023-05-10T02:44:45.753Z,3.30
2023-05-10T02:47:53.059Z,3.10
2023-05-10T02:51:04.011Z,3.60
2023-05-10T02:54:13.512Z,3.10
2023-05-10T02:57:20.515Z,3.90
2023-05-10T03:00:25.938Z,3.33
2023-05-10T03:03:30.950Z,3.22
2023-05-10T03:06:40.023Z,3.47
2023-05-10T03:09:46.422Z,3.33
2023-05-10T03:12:58.044Z,3.47
2023-05-10T03:16:05.567Z,3.05
2023-05-10T03:19:16.871Z,4.28
2023-05-10T03:22:27.694Z,3.40
2023-05-10T03:25:33.913Z,3.35
2023-05-10T03:28:40.742Z,3.75
2023-05-10T03:31:46.179Z,3.80
2023-05-10T03:34:51.478Z,3.40
2023-05-10T03:37:59.669Z,3.20
2023-05-10T03:41:04.652Z,3.03
2023-05-10T03:44:09.957Z,3.67
2023-05-10T03:47:14.913Z,3.50
2023-05-10T03:50:20.498Z,3.38
2023-05-10T03:53:30.466Z,3.38
2023-05-10T03:56:35.855Z,4.40
2023-05-10T03:59:40.856Z,3.55
2023-05-10T04:02:46.458Z,3.28
2023-05-10T04:05:51.601Z,3.38
2023-05-10T04:09:01.109Z,3.20
2023-05-10T04:12:07.994Z,3.67
2023-05-10T04:15:14.527Z,3.83
2023-05-10T04:18:19.596Z,3.28
2023-05-10T04:21:24.937Z,3.70
2023-05-10T04:24:32.620Z,4.00
2023-05-10T04:27:38.416Z,4.53
2023-05-10T04:30:45.516Z,3.80
2023-05-10T04:33:54.183Z,3.88
2023-05-10T04:36:59.350Z,3.70
2023-05-10T04:40:09.021Z,4.22
2023-05-10T04:43:14.365Z,4.07
2023-05-10T04:46:19.775Z,3.55
2023-05-10T04:49:25.936Z,3.40
2023-05-10T04:52:32.973Z,3.90
2023-05-10T04:55:40.870Z,3.65
2023-05-10T04:58:46.238Z,4.15
2023-05-10T05:01:51.270Z,3.90
2023-05-10T05:04:57.289Z,4.45
2023-05-10T05:08:05.577Z,3.72
2023-05-10T05:11:22.825Z,3.60
2023-05-10T05:14:28.145Z,3.83
2023-05-10T05:17:34.244Z,3.75
2023-05-10T05:20:39.251Z,4.43
2023-05-10T05:23:47.210Z,3.63
2023-05-10T05:26:54.981Z,3.55
2023-05-10T05:30:05.037Z,4.88
2023-05-10T05:33:10.517Z,3.92
2023-05-10T05:36:15.864Z,4.35
2023-05-10T05:39:21.119Z,3.70
2023-05-10T05:42:29.194Z,3.97
2023-05-10T05:45:35.055Z,4.13
2023-05-10T05:48:42.804Z,4.65
2023-05-10T05:51:50.807Z,3.92
2023-05-10T05:54:56.078Z,4.38
2023-05-10T05:58:12.018Z,4.00
2023-05-10T06:01:17.644Z,4.18
2023-05-10T06:04:23.161Z,3.95
2023-05-10T06:07:30.649Z,3.97
2023-05-10T06:10:36.366Z,4.20
2023-05-10T06:13:46.843Z,3.80
2023-05-10T06:16:52.249Z,4.07
2023-05-10T06:19:58.814Z,3.70
2023-05-10T06:23:06.540Z,3.85
2023-05-10T06:26:11.514Z,4.38
2023-05-10T06:29:23.859Z,3.50
2023-05-10T06:32:29.991Z,3.92
2023-05-10T06:35:35.410Z,4.15
2023-05-10T06:38:43.067Z,3.95
2023-05-10T06:41:49.865Z,3.90
2023-05-10T06:44:57.450Z,4.43
2023-05-10T06:48:03.843Z,3.65
2023-05-10T06:51:08.942Z,3.88
2023-05-10T06:54:14.604Z,3.85
2023-05-10T06:57:30.625Z,4.15
2023-05-10T07:00:44.995Z,4.10
2023-05-10T07:03:50.397Z,4.03
2023-05-10T07:07:00.685Z,3.50
2023-05-10T07:10:06.052Z,3.88
2023-05-10T07:13:11.820Z,4.30
2023-05-10T07:16:19.981Z,3.90
2023-05-10T07:19:25.982Z,4.30
2023-05-10T07:22:31.249Z,3.97
2023-05-10T07:25:36.648Z,4.05
2023-05-10T07:28:42.227Z,3.30
2023-05-10T07:31:51.152Z,3.85
2023-05-10T07:35:09.529Z,3.72
2023-05-10T07:38:15.002Z,3.53
2023-05-10T07:41:25.368Z,4.35
2023-05-10T07:44:38.251Z,3.05
2023-05-10T07:47:49.346Z,3.63
2023-05-10T07:51:03.228Z,3.63
2023-05-10T07:54:11.489Z,3.28
2023-05-10T07:57:22.390Z,3.63
2023-05-10T08:00:36.116Z,4.07
2023-05-10T08:03:53.370Z,4.20
2023-05-10T08:07:02.767Z,3.90
2023-05-10T08:10:09.505Z,3.90
2023-05-10T08:13:15.600Z,3.67
2023-05-10T08:16:21.816Z,3.55
2023-05-10T08:19:47.156Z,3.58
2023-05-10T08:22:53.904Z,3.25
2023-05-10T08:26:03.271Z,3.28
2023-05-10T08:29:14.106Z,3.50
2023-05-10T08:32:22.799Z,3.28
2023-05-10T08:35:34.437Z,3.58
2023-05-10T08:38:43.784Z,6.72
2023-05-10T08:42:06.431Z,3.80
2023-05-10T08:45:17.966Z,3.38
2023-05-10T08:48:49.430Z,3.47
2023-05-10T08:52:09.609Z,3.45
2023-05-10T08:55:25.276Z,3.30
2023-05-10T08:58:45.908Z,2.95
2023-05-10T09:01:55.446Z,2.92
2023-05-10T09:05:22.701Z,3.90
2023-05-10T09:08:37.724Z,2.97
2023-05-10T09:11:43.429Z,3.20
2023-05-10T09:14:50.528Z,2.90
2023-05-10T09:17:59.765Z,3.33
2023-05-10T09:21:07.166Z,3.15
2023-05-10T09:24:21.104Z,3.15
2023-05-10T09:27:32.048Z,3.00
2023-05-10T09:30:46.141Z,2.72
2023-05-10T09:34:08.859Z,3.25
2023-05-10T09:37:22.028Z,2.58
2023-05-10T09:40:32.180Z,2.47
2023-05-10T09:46:49.621Z,2.70
2023-05-10T09:49:57.317Z,2.30
2023-05-10T09:53:05.098Z,2.50
2023-05-10T09:56:14.395Z,2.35
2023-05-10T09:59:19.727Z,2.90
2023-05-10T10:02:33.160Z,2.90
2023-05-10T10:05:40.708Z,2.30
2023-05-10T10:08:51.386Z,2.00
2023-05-10T10:12:00.428Z,2.22
2023-05-10T10:15:06.417Z,1.92
2023-05-10T10:18:11.958Z,2.45
2023-05-10T10:21:18.154Z,2.08
2023-05-10T10:24:28.318Z,2.22
2023-05-10T10:27:43.549Z,2.20
2023-05-10T10:30:51.497Z,3.67
2023-05-10T10:34:04.884Z,2.80
2023-05-10T10:37:10.068Z,3.42
2023-05-10T10:40:28.288Z,2.45
2023-05-10T10:43:36.322Z,2.47
2023-05-10T10:47:03.691Z,2.53
2023-05-10T10:50:25.613Z,2.40
2023-05-10T10:53:35.916Z,2.85
2023-05-10T10:56:41.011Z,2.55
2023-05-10T10:59:49.542Z,2.55
2023-05-10T11:02:55.496Z,2.38
2023-05-10T11:06:03.024Z,2.50
2023-05-10T11:09:10.507Z,2.78
2023-05-10T11:12:17.531Z,2.65
2023-05-10T11:15:32.400Z,2.78
2023-05-10T11:18:38.032Z,2.92
2023-05-10T11:21:49.108Z,2.47
2023-05-10T11:25:01.746Z,2.72
2023-05-10T11:28:08.586Z,2.70
2023-05-10T11:31:17.463Z,2.75
2023-05-10T11:34:29.991Z,2.60
2023-05-10T11:37:35.692Z,2.45
2023-05-10T11:40:41.430Z,2.55
2023-05-10T11:43:50.427Z,2.53
2023-05-10T11:46:59.798Z,2.53
2023-05-10T11:50:06.103Z,2.88
2023-05-10T11:53:12.528Z,2.58
2023-05-10T11:56:19.622Z,2.58
2023-05-10T11:59:24.680Z,2.35
2023-05-10T12:02:33.184Z,2.40
2023-05-10T12:05:42.220Z,2.75
2023-05-10T12:08:49.190Z,2.47
2023-05-10T12:12:01.329Z,3.42
2023-05-10T12:15:10.871Z,2.88
2023-05-10T12:18:26.847Z,2.42
2023-05-10T12:21:36.403Z,2.30
2023-05-10T12:24:41.994Z,2.40
2023-05-10T12:27:58.202Z,2.80
2023-05-10T12:31:07.077Z,2.67
2023-05-10T12:34:26.487Z,2.30
2023-05-10T12:37:37.216Z,2.50
2023-05-10T12:40:52.878Z,2.40
2023-05-10T12:43:59.795Z,2.80
2023-05-10T12:47:05.581Z,2.60
2023-05-10T12:50:14.226Z,3.30
2023-05-10T12:53:24.091Z,2.25
2023-05-10T12:56:29.221Z,2.42
2023-05-10T12:59:36.716Z,2.42
2023-05-10T13:02:43.137Z,2.88
2023-05-10T13:05:52.940Z,2.47
2023-05-10T13:08:58.840Z,2.42
2023-05-10T13:12:04.601Z,2.70
2023-05-10T13:15:12.985Z,2.50
2023-05-10T13:18:19.085Z,2.53
2023-05-10T13:21:28.618Z,2.70
2023-05-10T13:24:37.766Z,2.60
2023-05-10T13:27:44.148Z,2.60
2023-05-10T13:30:50.566Z,2.95
2023-05-10T13:33:55.730Z,2.50
2023-05-10T13:37:06.777Z,2.50
2023-05-10T13:40:12.740Z,2.60
2023-05-10T13:43:19.920Z,2.60
2023-05-10T13:46:25.523Z,2.30
2023-05-10T13:49:31.351Z,2.60
2023-05-10T13:52:39.735Z,2.67
2023-05-10T13:55:45.602Z,2.45
2023-05-10T13:58:54.959Z,2.90
2023-05-10T14:02:00.598Z,2.90
2023-05-10T14:05:05.716Z,2.90
2023-05-10T14:08:15.851Z,2.50
2023-05-10T14:11:22.700Z,2.78
2023-05-10T14:14:30.526Z,2.60
2023-05-10T14:17:35.973Z,2.55
2023-05-10T14:20:42.197Z,2.60
2023-05-10T14:23:53.555Z,2.58
2023-05-10T14:26:59.994Z,2.72
2023-05-10T14:30:05.146Z,2.72
2023-05-10T14:33:15.237Z,2.90
2023-05-10T14:36:21.415Z,2.65
2023-05-10T14:39:30.789Z,2.50
2023-05-10T14:42:36.423Z,2.42
2023-05-10T14:45:43.611Z,2.83
2023-05-10T14:48:52.982Z,3.50
2023-05-10T14:51:59.990Z,2.47
2023-05-10T14:55:08.976Z,3.13
2023-05-10T14:58:14.931Z,2.85
2023-05-10T15:01:20.393Z,2.90
2023-05-10T15:04:28.316Z,2.92
2023-05-10T15:07:36.675Z,2.92
2023-05-10T15:10:49.248Z,2.78
2023-05-10T15:13:54.491Z,3.10
2023-05-10T15:16:59.935Z,2.60
2023-05-10T15:20:05.960Z,3.67
2023-05-10T15:23:16.961Z,3.00
2023-05-10T15:26:25.289Z,2.87
2023-05-10T15:29:31.028Z,3.10
2023-05-10T15:32:40.575Z,2.70
2023-05-10T15:35:47.578Z,3.05
2023-05-10T15:38:55.770Z,2.70
2023-05-10T15:42:09.955Z,2.85
2023-05-10T15:45:17.438Z,2.78
2023-05-10T15:48:24.838Z,2.78
2023-05-10T15:51:32.118Z,2.67
2023-05-10T15:54:42.897Z,2.70
2023-05-10T15:57:51.614Z,2.65
2023-05-10T16:00:58.027Z,2.53
2023-05-10T16:04:03.274Z,2.55
2023-05-10T16:07:08.858Z,2.78
2023-05-10T16:10:14.618Z,2.90
2023-05-10T16:13:26.620Z,2.63
2023-05-10T16:16:31.879Z,2.63
2023-05-10T16:19:38.733Z,2.90
2023-05-10T16:22:44.756Z,2.20
2023-05-10T16:25:50.367Z,2.60
2023-05-10T16:28:58.145Z,2.83
2023-05-10T16:32:10.437Z,3.05
2023-05-10T16:35:17.270Z,2.95
2023-05-10T16:38:23.727Z,2.70
2023-05-10T16:41:34.204Z,2.95
2023-05-10T16:44:43.608Z,3.08
2023-05-10T16:47:48.887Z,2.80
2023-05-10T16:50:55.596Z,2.85
2023-05-10T16:54:00.642Z,3.00
2023-05-10T16:57:12.628Z,3.03
2023-05-10T17:00:21.491Z,3.30
2023-05-10T17:03:28.907Z,2.90
2023-05-10T17:06:38.338Z,3.13
2023-05-10T17:09:47.569Z,3.28
2023-05-10T17:12:54.078Z,3.10
2023-05-10T17:16:06.477Z,2.63
2023-05-10T17:22:18.737Z,2.97
2023-05-10T17:25:29.686Z,3.13
2023-05-10T17:28:38.669Z,2.95
2023-05-10T17:31:47.136Z,3.53
2023-05-10T17:35:08.923Z,3.60
2023-05-10T17:38:14.939Z,4.03
2023-05-10T17:41:20.252Z,2.80
2023-05-10T17:44:26.334Z,2.90
2023-05-10T17:47:35.043Z,3.13
2023-05-10T17:50:41.391Z,3.05
2023-05-10T17:53:50.166Z,2.95
2023-05-10T17:56:56.340Z,2.63
2023-05-10T18:00:04.344Z,3.15
2023-05-10T18:03:16.775Z,3.00
2023-05-10T18:06:22.180Z,3.55
2023-05-10T18:09:30.986Z,3.40
2023-05-10T18:12:42.689Z,4.03
2023-05-10T18:15:55.980Z,4.20
2023-05-10T18:19:04.038Z,4.10
2023-05-10T18:22:12.667Z,3.38
2023-05-10T18:25:19.522Z,4.10
2023-05-10T18:28:26.317Z,4.18
2023-05-10T18:31:32.193Z,4.13
2023-05-10T18:34:46.536Z,4.75
2023-05-10T18:37:51.937Z,4.43
2023-05-10T18:40:58.060Z,4.95
2023-05-10T18:44:06.412Z,4.78
2023-05-10T18:47:12.459Z,5.15
2023-05-10T18:50:34.043Z,5.35
2023-05-10T18:53:41.168Z,4.97
2023-05-10T18:56:47.026Z,4.72
2023-05-10T18:59:55.395Z,4.50
2023-05-10T19:03:00.778Z,4.18
2023-05-10T19:06:12.095Z,6.05
2023-05-10T19:09:20.456Z,4.63
2023-05-10T19:12:28.708Z,4.90
2023-05-10T19:15:35.618Z,4.68
2023-05-10T19:18:49.785Z,5.57
2023-05-10T19:22:02.345Z,5.10
2023-05-10T19:25:10.591Z,5.05
2023-05-10T19:28:18.084Z,5.70
2023-05-10T19:31:26.329Z,5.63
2023-05-10T19:34:35.961Z,4.90
2023-05-10T19:37:46.186Z,4.80
2023-05-10T19:40:58.230Z,4.15
2023-05-10T19:44:04.552Z,3.70
2023-05-10T19:47:11.131Z,3.63
2023-05-10T19:50:18.387Z,3.15
2023-05-10T19:53:29.400Z,4.15
2023-05-10T19:56:37.685Z,3.60
2023-05-10T19:59:45.286Z,3.40
2023-05-10T20:02:51.151Z,3.25
2023-05-10T20:05:57.409Z,4.10
2023-05-10T20:09:09.036Z,3.70
2023-05-10T20:12:16.677Z,3.60
2023-05-10T20:15:25.834Z,3.78
2023-05-10T20:18:32.763Z,3.90
2023-05-10T20:21:38.253Z,3.42
2023-05-10T20:24:46.784Z,4.00
2023-05-10T20:27:57.524Z,3.50
2023-05-10T20:31:04.416Z,3.40
2023-05-10T20:34:09.980Z,3.90
2023-05-10T20:37:15.851Z,4.07
2023-05-10T20:40:24.241Z,3.90
2023-05-10T20:43:32.102Z,3.80
2023-05-10T20:46:38.023Z,4.28
2023-05-10T20:49:47.141Z,3.80
2023-05-10T20:52:55.392Z,3.78
2023-05-10T20:56:04.453Z,3.75
2023-05-10T20:59:12.459Z,4.18
2023-05-10T21:02:23.599Z,3.92
2023-05-10T21:05:32.141Z,3.80
2023-05-10T21:08:39.031Z,4.00
2023-05-10T21:11:47.928Z,4.00
2023-05-10T21:14:52.947Z,3.80
2023-05-10T21:17:58.462Z,3.30
2023-05-10T21:21:11.757Z,3.47
2023-05-10T21:24:17.220Z,3.17
2023-05-10T21:27:25.275Z,3.53
2023-05-10T21:30:30.864Z,3.40
2023-05-10T21:33:35.875Z,3.60
2023-05-10T21:36:41.566Z,3.70
2023-05-10T21:39:46.873Z,3.63
2023-05-10T21:42:56.260Z,3.65
2023-05-10T21:46:01.577Z,3.75
2023-05-10T21:49:07.334Z,3.65
2023-05-10T21:52:18.034Z,3.45
2023-05-10T21:55:26.253Z,3.70
2023-05-10T21:58:37.020Z,3.55
2023-05-10T22:01:44.067Z,3.95
2023-05-10T22:04:49.232Z,3.67
2023-05-10T22:07:54.711Z,3.47
2023-05-10T22:11:05.622Z,3.03
2023-05-10T22:17:36.636Z,3.30
2023-05-10T22:20:48.805Z,3.80
2023-05-10T22:23:53.854Z,3.80
2023-05-10T22:27:04.569Z,3.88
2023-05-10T22:30:13.611Z,3.58
2023-05-10T22:33:19.493Z,3.20
2023-05-10T22:36:24.548Z,3.40
2023-05-10T22:39:29.978Z,3.72
2023-05-10T22:42:35.335Z,4.00
2023-05-10T22:45:45.710Z,3.08
2023-05-10T22:48:51.509Z,3.80
2023-05-10T22:51:57.428Z,3.28
2023-05-10T22:55:07.467Z,3.67
2023-05-10T22:58:20.372Z,3.35
2023-05-10T23:04:34.895Z,3.22
2023-05-10T23:07:39.974Z,3.40
2023-05-10T23:10:54.308Z,3.45
2023-05-10T23:14:07.522Z,3.60
2023-05-10T23:17:14.048Z,3.35
2023-05-10T23:20:21.916Z,3.20
2023-05-10T23:23:27.882Z,3.47
2023-05-10T23:26:33.190Z,3.30
2023-05-10T23:29:39.849Z,3.40
2023-05-10T23:32:48.871Z,3.35
2023-05-10T23:35:58.766Z,3.67
2023-05-10T23:39:04.012Z,3.67
2023-05-10T23:42:09.547Z,3.40
2023-05-10T23:45:14.980Z,3.58
2023-05-10T23:48:20.931Z,3.70
2023-05-10T23:51:28.607Z,3.63
2023-05-10T23:54:38.357Z,3.15
2023-05-10T23:57:43.907Z,4.53
